createdAt,value
2019-01-18T00:00:52.395Z,10.93
2019-01-18T00:02:56.472Z,15.47
2019-01-18T00:05:00.207Z,8.30
2019-01-18T00:07:04.660Z,6.47
2019-01-18T00:09:09.071Z,14.30
2019-01-18T00:11:12.784Z,13.60
2019-01-18T00:13:16.402Z,7.90
2019-01-18T00:15:20.293Z,9.63
2019-01-18T00:17:24.004Z,7.00
2019-01-18T00:19:27.708Z,10.23
2019-01-18T00:21:31.793Z,8.00
2019-01-18T00:23:35.561Z,12.30
2019-01-18T00:25:39.292Z,13.07
2019-01-18T00:27:42.998Z,8.90
2019-01-18T00:29:46.762Z,8.03
2019-01-18T00:31:50.536Z,11.90
2019-01-18T00:33:54.191Z,11.10
2019-01-18T00:35:57.892Z,10.30
2019-01-18T00:38:01.633Z,9.90
2019-01-18T00:40:08.335Z,15.83
2019-01-18T00:42:11.916Z,7.67
2019-01-18T00:44:15.664Z,6.40
2019-01-18T00:46:19.385Z,12.10
2019-01-18T00:48:23.104Z,11.23
2019-01-18T00:50:26.710Z,9.37
2019-01-18T00:52:30.533Z,12.87
2019-01-18T00:54:34.297Z,12.47
2019-01-18T00:56:38.196Z,8.53
2019-01-18T00:58:42.320Z,12.80
2019-01-18T01:00:46.190Z,11.63
2019-01-18T01:02:50.251Z,7.70
2019-01-18T01:04:54.118Z,7.53
2019-01-18T01:06:58.361Z,9.03
2019-01-18T01:09:02.135Z,10.50
2019-01-18T01:11:06.134Z,7.63
2019-01-18T01:13:10.085Z,7.40
2019-01-18T01:15:17.862Z,7.00
2019-01-18T01:17:21.912Z,10.70
2019-01-18T01:19:25.650Z,9.10
2019-01-18T01:21:29.618Z,12.83
2019-01-18T01:23:33.529Z,7.33
2019-01-18T01:25:37.348Z,6.90
2019-01-18T01:27:41.275Z,9.90
2019-01-18T01:29:44.905Z,6.27
2019-01-18T01:31:48.701Z,8.23
2019-01-18T01:33:52.279Z,8.87
2019-01-18T01:35:56.089Z,7.43
2019-01-18T01:37:59.815Z,10.63
2019-01-18T01:40:04.885Z,8.07
2019-01-18T01:42:08.891Z,7.20
2019-01-18T01:44:12.711Z,11.33
2019-01-18T01:46:16.516Z,9.20
2019-01-18T01:48:20.203Z,8.60
2019-01-18T01:50:25.409Z,7.90
2019-01-18T01:52:29.139Z,11.00
2019-01-18T01:54:33.981Z,12.37
2019-01-18T01:56:38.198Z,5.80
2019-01-18T01:58:41.816Z,9.60
2019-01-18T02:00:45.457Z,13.57
2019-01-18T02:02:49.212Z,11.60
2019-01-18T02:04:52.787Z,12.53
2019-01-18T02:06:56.469Z,5.00
2019-01-18T02:09:00.284Z,11.27
2019-01-18T02:11:04.107Z,6.47
2019-01-18T02:13:07.789Z,13.77
2019-01-18T02:15:14.342Z,8.40
2019-01-18T02:17:18.114Z,9.87
2019-01-18T02:19:21.855Z,10.37
2019-01-18T02:21:25.553Z,16.20
2019-01-18T02:23:29.242Z,7.77
2019-01-18T02:25:33.465Z,9.30
2019-01-18T02:27:37.585Z,14.47
2019-01-18T02:29:41.313Z,10.67
2019-01-18T02:31:44.985Z,10.07
2019-01-18T02:33:48.589Z,16.67
2019-01-18T02:35:52.241Z,11.00
2019-01-18T02:37:55.924Z,11.43
2019-01-18T02:39:59.578Z,12.03
2019-01-18T02:42:04.808Z,13.73
2019-01-18T02:44:08.521Z,10.97
2019-01-18T02:46:12.164Z,22.00
2019-01-18T02:48:15.848Z,11.03
2019-01-18T02:50:20.189Z,10.93
2019-01-18T02:52:23.861Z,12.17
2019-01-18T02:54:27.523Z,17.53
2019-01-18T02:56:31.177Z,10.93
2019-01-18T02:58:34.793Z,13.73
2019-01-18T03:00:38.581Z,14.10
2019-01-18T03:02:42.329Z,12.53
2019-01-18T03:04:45.989Z,15.73
2019-01-18T03:06:49.645Z,11.70
2019-01-18T03:08:53.349Z,14.53
2019-01-18T03:10:57.148Z,11.07
2019-01-18T03:13:00.825Z,14.43
2019-01-18T03:15:06.380Z,12.10
2019-01-18T03:17:10.023Z,16.70
2019-01-18T03:19:13.751Z,13.60
2019-01-18T03:21:17.528Z,15.73
2019-01-18T03:23:21.309Z,19.30
2019-01-18T03:25:26.416Z,11.20
2019-01-18T03:27:30.005Z,14.93
2019-01-18T03:29:33.682Z,13.63
2019-01-18T03:31:37.283Z,12.30
2019-01-18T03:33:41.027Z,17.30
2019-01-18T03:35:44.756Z,15.37
2019-01-18T03:37:48.529Z,13.90
2019-01-18T03:39:52.304Z,16.30
2019-01-18T03:41:55.969Z,14.33
2019-01-18T03:43:59.638Z,14.97
2019-01-18T03:46:07.444Z,14.53
2019-01-18T03:48:08.737Z,12.00
2019-01-18T03:50:18.529Z,17.37
2019-01-18T03:52:22.194Z,17.10
2019-01-18T03:54:27.892Z,12.33
2019-01-18T03:56:31.336Z,15.30
2019-01-18T03:58:34.997Z,14.17
2019-01-18T04:00:38.761Z,16.00
2019-01-18T04:02:42.473Z,17.40
2019-01-18T04:04:47.669Z,23.63
2019-01-18T04:06:51.400Z,14.60
2019-01-18T04:08:55.299Z,22.57
2019-01-18T04:10:58.956Z,16.90
2019-01-18T04:13:02.597Z,11.90
2019-01-18T04:15:09.659Z,19.33
2019-01-18T04:17:13.280Z,14.40
2019-01-18T04:19:16.939Z,13.00
2019-01-18T04:21:20.713Z,15.07
2019-01-18T04:23:24.310Z,19.67
2019-01-18T04:25:29.666Z,15.40
2019-01-18T04:27:33.442Z,12.47
2019-01-18T04:29:37.038Z,22.00
2019-01-18T04:31:40.687Z,15.53
2019-01-18T04:33:44.461Z,13.20
2019-01-18T04:35:48.198Z,18.13
2019-01-18T04:37:51.847Z,13.77
2019-01-18T04:39:55.544Z,12.97
2019-01-18T04:41:59.288Z,16.60
2019-01-18T04:44:02.919Z,28.67
2019-01-18T04:46:06.675Z,12.13
2019-01-18T04:48:10.411Z,17.03
2019-01-18T04:50:19.020Z,13.87
2019-01-18T04:52:22.652Z,15.00
2019-01-18T04:54:26.377Z,17.70
2019-01-18T04:56:30.009Z,14.87
2019-01-18T04:58:33.664Z,14.93
2019-01-18T05:00:41.090Z,20.90
2019-01-18T05:02:42.744Z,16.30
2019-01-18T05:04:46.449Z,19.50
2019-01-18T05:06:50.027Z,15.27
2019-01-18T05:08:53.627Z,11.67
2019-01-18T05:10:57.356Z,14.30
2019-01-18T05:13:01.162Z,21.50
2019-01-18T05:15:11.178Z,25.53
2019-01-18T05:17:15.007Z,16.83
2019-01-18T05:19:18.800Z,18.07
2019-01-18T05:21:22.503Z,14.00
2019-01-18T05:23:26.185Z,13.80
2019-01-18T05:25:29.922Z,11.20
2019-01-18T05:27:33.563Z,15.83
2019-01-18T05:29:37.174Z,9.40
2019-01-18T05:31:40.868Z,11.57
2019-01-18T05:33:44.611Z,17.13
2019-01-18T05:35:48.257Z,16.77
2019-01-18T05:37:52.115Z,12.57
2019-01-18T05:39:55.706Z,18.23
2019-01-18T05:41:59.501Z,17.77
2019-01-18T05:44:03.291Z,15.67
2019-01-18T05:46:06.869Z,18.60
2019-01-18T05:48:10.558Z,17.20
2019-01-18T05:50:16.745Z,14.43
2019-01-18T05:52:20.471Z,19.67
2019-01-18T05:54:24.196Z,19.43
2019-01-18T05:56:27.900Z,19.87
2019-01-18T05:58:34.646Z,19.13
2019-01-18T06:00:39.997Z,14.27
2019-01-18T06:02:43.583Z,18.30
2019-01-18T06:04:48.443Z,17.83
2019-01-18T06:06:52.093Z,28.70
2019-01-18T06:08:55.737Z,23.03
2019-01-18T06:10:59.405Z,18.60
2019-01-18T06:13:03.047Z,13.17
2019-01-18T06:15:08.399Z,19.23
2019-01-18T06:17:12.103Z,14.40
2019-01-18T06:19:15.891Z,12.00
2019-01-18T06:21:19.752Z,14.33
2019-01-18T06:23:23.440Z,22.30
2019-01-18T06:25:27.459Z,26.63
2019-01-18T06:27:31.308Z,14.70
2019-01-18T06:29:35.120Z,21.03
2019-01-18T06:31:38.952Z,16.33
2019-01-18T06:33:42.664Z,22.13
2019-01-18T06:35:46.512Z,23.10
2019-01-18T06:37:50.230Z,15.13
2019-01-18T06:39:53.939Z,13.30
2019-01-18T06:41:57.846Z,16.40
2019-01-18T06:44:02.018Z,16.20
2019-01-18T06:46:05.891Z,13.43
2019-01-18T06:48:11.289Z,15.97
2019-01-18T06:50:16.961Z,18.50
2019-01-18T06:52:20.816Z,15.63
2019-01-18T06:54:24.499Z,16.13
2019-01-18T06:56:28.372Z,16.83
2019-01-18T06:58:32.194Z,19.93
2019-01-18T07:00:36.175Z,14.70
2019-01-18T07:02:39.980Z,15.43
2019-01-18T07:04:43.715Z,19.07
2019-01-18T07:06:47.496Z,16.20
2019-01-18T07:08:51.351Z,15.63
2019-01-18T07:10:55.297Z,15.93
2019-01-18T07:13:00.026Z,17.53
2019-01-18T07:15:05.081Z,21.93
2019-01-18T07:17:08.948Z,17.53
2019-01-18T07:19:12.783Z,22.10
2019-01-18T07:21:16.655Z,23.10
2019-01-18T07:23:20.433Z,20.80
2019-01-18T07:25:26.759Z,17.50
2019-01-18T07:27:30.651Z,17.03
2019-01-18T07:29:34.542Z,17.33
2019-01-18T07:31:38.505Z,24.97
2019-01-18T07:33:42.517Z,16.10
2019-01-18T07:35:46.372Z,20.07
2019-01-18T07:37:50.225Z,23.60
2019-01-18T07:39:53.979Z,22.73
2019-01-18T07:41:57.912Z,18.47
2019-01-18T07:44:01.781Z,18.30
2019-01-18T07:46:05.762Z,23.80
2019-01-18T07:48:09.609Z,16.60
2019-01-18T07:50:19.751Z,18.90
2019-01-18T07:52:19.616Z,18.30
2019-01-18T07:54:23.457Z,20.33
2019-01-18T07:56:27.317Z,24.10
2019-01-18T07:58:31.069Z,20.70
2019-01-18T08:00:35.024Z,22.27
2019-01-18T08:02:38.930Z,23.93
2019-01-18T08:04:42.760Z,17.83
2019-01-18T08:06:46.689Z,22.17
2019-01-18T08:08:50.541Z,18.17
2019-01-18T08:10:54.414Z,21.77
2019-01-18T08:12:59.000Z,23.20
2019-01-18T08:15:02.984Z,21.93
2019-01-18T08:17:06.930Z,28.03
2019-01-18T08:19:11.079Z,27.83
2019-01-18T08:21:14.975Z,26.87
2019-01-18T08:23:18.824Z,30.17
2019-01-18T08:25:22.785Z,30.00
2019-01-18T08:27:26.725Z,31.00
2019-01-18T08:29:30.602Z,24.90
2019-01-18T08:31:34.457Z,23.53
2019-01-18T08:33:38.332Z,22.80
2019-01-18T08:35:42.131Z,20.90
2019-01-18T08:37:46.038Z,18.03
2019-01-18T08:39:49.857Z,19.23
2019-01-18T08:41:54.335Z,21.90
2019-01-18T08:43:58.142Z,23.00
2019-01-18T08:46:01.987Z,19.73
2019-01-18T08:48:06.950Z,22.80
2019-01-18T08:50:16.447Z,20.70
2019-01-18T08:52:21.314Z,19.50
2019-01-18T08:54:26.617Z,18.73
2019-01-18T08:56:30.503Z,15.23
2019-01-18T08:58:35.805Z,16.90
2019-01-18T09:00:39.657Z,15.20
2019-01-18T09:02:43.464Z,21.90
2019-01-18T09:04:47.328Z,24.97
2019-01-18T09:06:51.184Z,16.40
2019-01-18T09:08:55.073Z,15.03
2019-01-18T09:10:58.903Z,14.63
2019-01-18T09:13:04.073Z,18.77
2019-01-18T09:15:10.317Z,21.00
2019-01-18T09:17:14.134Z,22.63
2019-01-18T09:19:18.033Z,22.57
2019-01-18T09:21:21.941Z,14.10
2019-01-18T09:23:25.814Z,22.63
2019-01-18T09:25:29.783Z,15.60
2019-01-18T09:27:33.576Z,16.40
2019-01-18T09:29:37.536Z,30.10
2019-01-18T09:31:42.578Z,22.40
2019-01-18T09:33:46.638Z,24.73
2019-01-18T09:35:50.600Z,21.50
2019-01-18T09:37:55.889Z,23.43
2019-01-18T09:39:59.743Z,25.57
2019-01-18T09:42:03.527Z,25.37
2019-01-18T09:44:07.398Z,26.23
2019-01-18T09:46:11.253Z,26.63
2019-01-18T09:48:15.269Z,23.70
2019-01-18T09:50:24.333Z,25.97
2019-01-18T09:52:28.819Z,20.80
2019-01-18T09:54:32.694Z,16.23
2019-01-18T09:56:36.567Z,18.87
2019-01-18T09:58:42.695Z,14.17
2019-01-18T10:00:46.596Z,22.63
2019-01-18T10:02:52.048Z,17.90
2019-01-18T10:04:55.953Z,12.47
2019-01-18T10:06:59.861Z,11.53
2019-01-18T10:09:06.439Z,13.37
2019-01-18T10:11:10.360Z,19.27
2019-01-18T10:13:14.220Z,19.33
2019-01-18T10:15:26.886Z,15.20
2019-01-18T10:17:30.843Z,18.13
2019-01-18T10:19:34.664Z,14.07
2019-01-18T10:21:40.436Z,20.47
2019-01-18T10:23:45.820Z,23.23
2019-01-18T10:25:49.727Z,12.23
2019-01-18T10:27:53.689Z,19.70
2019-01-18T10:29:59.284Z,19.33
2019-01-18T10:32:03.225Z,30.70
2019-01-18T10:34:08.063Z,23.80
2019-01-18T10:36:11.976Z,38.90
2019-01-18T10:38:15.845Z,25.13
2019-01-18T10:40:21.605Z,24.53
2019-01-18T10:42:25.491Z,19.83
2019-01-18T10:44:29.329Z,23.10
2019-01-18T10:46:33.277Z,20.50
2019-01-18T10:48:37.086Z,20.87
2019-01-18T10:50:40.958Z,15.70
2019-01-18T10:52:45.101Z,19.80
2019-01-18T10:54:48.881Z,19.47
2019-01-18T10:56:52.770Z,21.30
2019-01-18T10:58:56.662Z,16.60
2019-01-18T11:01:00.556Z,15.77
2019-01-18T11:03:04.687Z,16.53
2019-01-18T11:05:11.815Z,17.97
2019-01-18T11:07:15.617Z,22.53
2019-01-18T11:09:19.451Z,17.80
2019-01-18T11:11:23.277Z,23.53
2019-01-18T11:13:27.106Z,18.27
2019-01-18T11:15:30.936Z,19.73
2019-01-18T11:17:34.874Z,26.40
2019-01-18T11:19:38.934Z,25.87
2019-01-18T11:21:42.975Z,37.87
2019-01-18T11:23:46.986Z,35.40
2019-01-18T11:25:52.097Z,22.70
2019-01-18T11:27:56.033Z,32.53
2019-01-18T11:30:00.245Z,20.43
2019-01-18T11:32:04.453Z,21.77
2019-01-18T11:34:08.483Z,22.43
2019-01-18T11:36:12.388Z,23.27
2019-01-18T11:38:16.210Z,17.30
2019-01-18T11:40:22.822Z,25.30
2019-01-18T11:42:26.981Z,24.73
2019-01-18T11:44:31.948Z,22.97
2019-01-18T11:46:35.813Z,22.40
2019-01-18T11:48:40.487Z,18.50
2019-01-18T11:50:44.317Z,22.67
2019-01-18T11:52:48.250Z,17.93
2019-01-18T11:54:52.322Z,20.07
2019-01-18T11:56:57.129Z,16.27
2019-01-18T11:59:01.083Z,14.90
2019-01-18T12:01:05.234Z,9.13
2019-01-18T12:03:09.123Z,12.23
2019-01-18T12:05:13.281Z,20.27
2019-01-18T12:07:17.192Z,14.20
2019-01-18T12:09:21.055Z,10.70
2019-01-18T12:11:24.984Z,12.27
2019-01-18T12:13:29.003Z,13.10
2019-01-18T12:15:32.748Z,21.60
2019-01-18T12:17:36.680Z,14.57
2019-01-18T12:19:40.361Z,10.23
2019-01-18T12:21:44.084Z,10.23
2019-01-18T12:23:47.789Z,10.40
2019-01-18T12:25:51.476Z,6.93
2019-01-18T12:27:55.200Z,16.73
2019-01-18T12:29:58.991Z,7.93
2019-01-18T12:32:02.725Z,9.83
2019-01-18T12:34:06.416Z,19.50
2019-01-18T12:36:10.139Z,23.53
2019-01-18T12:38:14.043Z,16.50
2019-01-18T12:40:17.722Z,19.43
2019-01-18T12:42:22.007Z,12.87
2019-01-18T12:44:25.596Z,16.20
2019-01-18T12:46:29.311Z,9.80
2019-01-18T12:48:33.598Z,8.73
2019-01-18T12:50:37.506Z,9.00
2019-01-18T12:52:41.743Z,9.90
2019-01-18T12:54:45.541Z,10.80
2019-01-18T12:56:49.244Z,8.90
2019-01-18T12:58:56.483Z,14.50
2019-01-18T13:00:58.406Z,9.27
2019-01-18T13:03:02.152Z,16.47
2019-01-18T13:05:08.855Z,7.97
2019-01-18T13:07:12.591Z,12.63
2019-01-18T13:09:18.294Z,8.20
2019-01-18T13:11:21.991Z,14.87
2019-01-18T13:13:25.710Z,7.97
2019-01-18T13:15:41.105Z,9.57
2019-01-18T13:17:44.673Z,6.70
2019-01-18T13:19:48.329Z,10.90
2019-01-18T13:21:52.121Z,6.90
2019-01-18T13:23:55.904Z,9.40
2019-01-18T13:26:01.093Z,7.90
2019-01-18T13:28:04.906Z,6.63
2019-01-18T13:30:11.660Z,12.77
2019-01-18T13:32:15.413Z,6.27
2019-01-18T13:34:19.162Z,5.90
2019-01-18T13:36:23.156Z,8.00
2019-01-18T13:38:26.911Z,10.87
2019-01-18T13:40:30.858Z,6.13
2019-01-18T13:42:34.456Z,8.70
2019-01-18T13:44:43.595Z,11.23
2019-01-18T13:46:43.899Z,6.33
2019-01-18T13:48:47.573Z,15.80
2019-01-18T13:50:51.454Z,10.50
2019-01-18T13:52:55.291Z,7.50
2019-01-18T13:54:59.135Z,14.33
2019-01-18T13:57:02.852Z,7.20
2019-01-18T13:59:08.120Z,11.33
2019-01-18T14:01:11.848Z,10.60
2019-01-18T14:03:15.588Z,8.47
2019-01-18T14:05:19.293Z,6.43
2019-01-18T14:07:23.097Z,6.83
2019-01-18T14:09:26.709Z,8.23
2019-01-18T14:11:30.499Z,8.83
2019-01-18T14:13:37.497Z,8.73
2019-01-18T14:15:40.084Z,15.87
2019-01-18T14:17:43.877Z,8.90
2019-01-18T14:19:47.536Z,10.63
2019-01-18T14:21:51.286Z,6.33
2019-01-18T14:23:55.594Z,5.67
2019-01-18T14:25:59.434Z,9.50
2019-01-18T14:28:03.152Z,5.50
2019-01-18T14:30:09.820Z,9.33
2019-01-18T14:32:14.139Z,11.13
2019-01-18T14:34:17.973Z,13.20
2019-01-18T14:36:21.846Z,8.87
2019-01-18T14:38:25.580Z,12.93
2019-01-18T14:40:29.287Z,13.27
2019-01-18T14:42:32.999Z,8.20
2019-01-18T14:44:36.704Z,4.43
2019-01-18T14:46:40.445Z,5.97
2019-01-18T14:48:44.091Z,7.20
2019-01-18T14:50:47.867Z,9.83
2019-01-18T14:52:51.592Z,8.33
2019-01-18T14:54:55.202Z,8.90
2019-01-18T14:56:58.964Z,12.53
2019-01-18T14:59:02.667Z,5.70
2019-01-18T15:01:06.558Z,9.03
2019-01-18T15:03:10.423Z,11.87
2019-01-18T15:05:14.477Z,10.77
2019-01-18T15:07:18.188Z,7.80
2019-01-18T15:09:22.146Z,11.20
2019-01-18T15:11:25.801Z,5.07
2019-01-18T15:13:30.702Z,16.70
2019-01-18T15:15:34.426Z,11.00
2019-01-18T15:17:38.417Z,14.90
2019-01-18T15:19:42.141Z,14.47
2019-01-18T15:21:45.882Z,15.93
2019-01-18T15:23:49.819Z,20.80
2019-01-18T15:25:53.608Z,21.40
2019-01-18T15:27:58.068Z,13.50
2019-01-18T15:30:02.236Z,12.30
2019-01-18T15:32:06.014Z,12.67
2019-01-18T15:34:09.844Z,14.57
2019-01-18T15:36:14.938Z,8.10
2019-01-18T15:38:18.770Z,9.47
2019-01-18T15:40:24.971Z,9.70
2019-01-18T15:42:28.718Z,9.80
2019-01-18T15:44:32.594Z,10.40
2019-01-18T15:46:36.329Z,7.70
2019-01-18T15:48:40.101Z,12.70
2019-01-18T15:50:43.902Z,9.33
2019-01-18T15:52:47.724Z,8.20
2019-01-18T15:54:51.402Z,8.27
2019-01-18T15:56:56.951Z,11.07
2019-01-18T15:59:00.682Z,14.43
2019-01-18T16:01:04.828Z,10.20
2019-01-18T16:03:15.601Z,10.30
2019-01-18T16:05:14.354Z,5.43
2019-01-18T16:07:17.911Z,8.63
2019-01-18T16:09:21.771Z,18.00
2019-01-18T16:11:25.418Z,9.47
2019-01-18T16:13:29.112Z,10.40
2019-01-18T16:15:50.825Z,5.10
2019-01-18T16:17:54.681Z,7.60
2019-01-18T16:19:58.394Z,4.87
2019-01-18T16:22:02.070Z,5.67
2019-01-18T16:24:06.025Z,5.17
2019-01-18T16:26:09.739Z,10.87
2019-01-18T16:28:13.515Z,10.83
2019-01-18T16:30:19.504Z,6.97
2019-01-18T16:32:23.055Z,9.87
2019-01-18T16:34:26.831Z,13.87
2019-01-18T16:36:30.512Z,10.70
2019-01-18T16:38:34.322Z,12.10
2019-01-18T16:40:38.049Z,10.70
2019-01-18T16:42:42.846Z,8.03
2019-01-18T16:44:46.732Z,12.23
2019-01-18T16:46:50.456Z,8.57
2019-01-18T16:48:54.255Z,10.83
2019-01-18T16:50:58.097Z,10.50
2019-01-18T16:53:01.779Z,13.53
2019-01-18T16:55:08.642Z,13.80
2019-01-18T16:57:12.406Z,16.93
2019-01-18T16:59:16.188Z,13.13
2019-01-18T17:01:20.015Z,13.43
2019-01-18T17:03:30.003Z,14.87
2019-01-18T17:05:30.454Z,16.13
2019-01-18T17:07:34.624Z,16.70
2019-01-18T17:09:38.425Z,17.57
2019-01-18T17:11:42.096Z,15.63
2019-01-18T17:13:45.747Z,11.07
2019-01-18T17:15:49.585Z,15.47
2019-01-18T17:17:54.479Z,10.40
2019-01-18T17:19:58.848Z,11.83
2019-01-18T17:22:02.765Z,16.17
2019-01-18T17:24:06.576Z,10.90
2019-01-18T17:26:10.289Z,11.00
2019-01-18T17:28:14.106Z,9.27
2019-01-18T17:30:19.849Z,9.07
2019-01-18T17:32:23.698Z,10.23
2019-01-18T17:34:28.704Z,12.60
2019-01-18T17:36:33.656Z,12.43
2019-01-18T17:39:07.505Z,13.57
2019-01-18T17:41:32.398Z,13.00
2019-01-18T17:43:42.018Z,12.77
2019-01-18T17:45:54.545Z,17.27
2019-01-18T17:48:10.067Z,15.90
2019-01-18T17:50:22.786Z,13.70
2019-01-18T17:52:35.299Z,19.07
2019-01-18T17:54:47.580Z,18.73
2019-01-18T17:57:06.374Z,12.47
2019-01-18T17:59:22.283Z,23.30
2019-01-18T18:01:37.719Z,21.80
2019-01-18T18:04:02.514Z,31.53
2019-01-18T18:06:43.778Z,32.17
2019-01-18T18:08:50.573Z,43.47
2019-01-18T18:11:00.489Z,45.83
2019-01-18T18:13:19.749Z,47.37
2019-01-18T18:15:45.064Z,44.93
2019-01-18T18:17:57.867Z,36.97
2019-01-18T18:20:13.467Z,30.57
2019-01-18T18:22:39.910Z,35.20
2019-01-18T18:25:00.462Z,35.63
2019-01-18T18:27:27.358Z,45.53
2019-01-18T18:29:49.095Z,47.80
2019-01-18T18:32:07.534Z,46.67
2019-01-18T18:34:24.067Z,39.60
2019-01-18T18:36:49.612Z,46.87
2019-01-18T18:39:02.314Z,32.37
2019-01-18T18:41:21.203Z,31.30
2019-01-18T18:43:29.809Z,20.30
2019-01-18T18:45:36.998Z,20.30
2019-01-18T18:47:58.898Z,11.90
2019-01-18T18:50:17.188Z,12.10
2019-01-18T18:52:32.280Z,10.70
2019-01-18T18:54:49.582Z,15.40
2019-01-18T18:57:12.180Z,10.17
2019-01-18T18:59:30.478Z,18.13
2019-01-18T19:01:53.980Z,18.93
2019-01-18T19:04:15.798Z,14.60
2019-01-18T19:06:47.037Z,18.60
2019-01-18T19:09:11.563Z,13.70
2019-01-18T19:11:21.925Z,11.80
2019-01-18T19:13:30.633Z,15.57
2019-01-18T19:15:48.645Z,12.87
2019-01-18T19:18:13.801Z,20.33
2019-01-18T19:20:37.787Z,18.17
2019-01-18T19:22:47.109Z,14.23
2019-01-18T19:25:10.798Z,10.70
2019-01-18T19:27:27.684Z,14.20
2019-01-18T19:29:41.146Z,16.43
2019-01-18T19:31:54.481Z,20.80
2019-01-18T19:34:04.486Z,24.33
2019-01-18T19:36:29.546Z,26.47
2019-01-18T19:38:42.476Z,26.07
2019-01-18T19:40:58.262Z,35.10
2019-01-18T19:43:13.835Z,32.53
2019-01-18T19:45:22.994Z,27.50
2019-01-18T19:47:38.558Z,28.97
2019-01-18T19:50:07.930Z,36.60
2019-01-18T19:52:20.280Z,29.43
2019-01-18T19:54:30.568Z,21.33
2019-01-18T19:56:42.848Z,19.50
2019-01-18T19:59:06.158Z,23.43
2019-01-18T20:01:13.439Z,25.10
2019-01-18T20:03:20.204Z,22.80
2019-01-18T20:05:33.773Z,16.63
2019-01-18T20:07:58.196Z,20.00
2019-01-18T20:10:34.406Z,21.47
2019-01-18T20:12:52.673Z,19.20
2019-01-18T20:15:08.212Z,23.90
2019-01-18T20:17:20.700Z,18.80
2019-01-18T20:19:35.930Z,22.50
2019-01-18T20:21:51.581Z,20.17
2019-01-18T20:24:03.802Z,14.83
2019-01-18T20:26:25.517Z,18.17
2019-01-18T20:28:41.136Z,11.30
2019-01-18T20:31:22.423Z,16.43
2019-01-18T20:33:50.555Z,15.33
2019-01-18T20:36:09.025Z,18.80
2019-01-18T20:38:37.877Z,19.97
2019-01-18T20:40:53.382Z,12.70
2019-01-18T20:43:24.063Z,15.97
2019-01-18T20:45:36.486Z,16.97
2019-01-18T20:47:45.813Z,17.77
2019-01-18T20:49:55.615Z,13.00
2019-01-18T20:52:19.897Z,14.20
2019-01-18T20:54:29.557Z,17.93
2019-01-18T20:56:36.215Z,14.27
2019-01-18T20:59:00.693Z,19.40
2019-01-18T21:01:26.484Z,23.00
2019-01-18T21:03:55.335Z,22.90
2019-01-18T21:06:18.784Z,25.83
2019-01-18T21:08:31.002Z,31.53
2019-01-18T21:10:58.524Z,30.93
2019-01-18T21:13:07.881Z,40.90
2019-01-18T21:15:17.284Z,39.00
2019-01-18T21:17:45.678Z,46.73
2019-01-18T21:19:58.209Z,44.63
2019-01-18T21:22:22.923Z,33.23
2019-01-18T21:24:46.191Z,33.20
2019-01-18T21:26:53.045Z,44.73
2019-01-18T21:29:05.211Z,36.93
2019-01-18T21:31:20.090Z,42.07
2019-01-18T21:33:32.564Z,39.40
2019-01-18T21:35:45.020Z,42.80
2019-01-18T21:38:03.446Z,36.27
2019-01-18T21:40:18.741Z,35.10
2019-01-18T21:42:43.261Z,28.80
2019-01-18T21:45:07.922Z,24.90
2019-01-18T21:47:20.597Z,18.43
2019-01-18T21:49:27.296Z,19.63
2019-01-18T21:51:50.346Z,16.63
2019-01-18T21:54:15.063Z,21.60
2019-01-18T21:56:44.151Z,16.33
2019-01-18T21:59:05.507Z,18.37
2019-01-18T22:01:30.184Z,20.63
2019-01-18T22:03:39.757Z,18.43
2019-01-18T22:05:58.513Z,15.67
2019-01-18T22:08:17.537Z,29.00
2019-01-18T22:10:30.783Z,28.90
2019-01-18T22:12:39.450Z,47.27
2019-01-18T22:14:51.638Z,51.97
2019-01-18T22:17:13.641Z,45.93
2019-01-18T22:19:42.491Z,36.83
2019-01-18T22:21:51.696Z,37.87
2019-01-18T22:24:03.973Z,36.17
2019-01-18T22:26:43.598Z,37.73
2019-01-18T22:29:02.189Z,33.47
2019-01-18T22:31:32.181Z,33.10
2019-01-18T22:33:47.814Z,35.37
2019-01-18T22:36:09.410Z,43.53
2019-01-18T22:38:33.956Z,39.73
2019-01-18T22:40:52.412Z,33.27
2019-01-18T22:43:15.382Z,38.63
2019-01-18T22:45:34.120Z,44.23
2019-01-18T22:47:59.835Z,37.67
2019-01-18T22:50:23.368Z,41.50
2019-01-18T22:52:35.476Z,40.10
2019-01-18T22:54:45.345Z,41.07
2019-01-18T22:57:14.387Z,42.67
2019-01-18T22:59:39.003Z,42.47
2019-01-18T23:02:09.372Z,52.60
2019-01-18T23:04:16.064Z,41.93
2019-01-18T23:06:40.766Z,38.77
2019-01-18T23:09:02.779Z,33.00
2019-01-18T23:11:11.949Z,43.00
2019-01-18T23:13:37.062Z,39.83
2019-01-18T23:15:52.881Z,44.27
2019-01-18T23:18:18.298Z,39.53
2019-01-18T23:20:36.791Z,36.40
2019-01-18T23:23:07.625Z,31.20
2019-01-18T23:25:29.012Z,27.60
2019-01-18T23:27:44.476Z,36.70
2019-01-18T23:29:56.716Z,30.17
2019-01-18T23:32:18.234Z,25.17
2019-01-18T23:34:33.730Z,27.67
2019-01-18T23:37:07.378Z,25.97
2019-01-18T23:39:26.158Z,27.40
2019-01-18T23:41:33.534Z,26.50
2019-01-18T23:43:51.973Z,24.23
2019-01-18T23:46:01.483Z,23.47
2019-01-18T23:48:14.761Z,28.77
2019-01-18T23:50:30.316Z,22.50
2019-01-18T23:52:48.706Z,26.62
2019-01-18T23:55:17.688Z,24.80
2019-01-18T23:57:30.105Z,27.27
2019-01-18T23:59:39.558Z,30.67
